Time;durP1;ratioP1;P1;durP2;ratioP2;P2;SDS_P1;SDS_P2;PMS_P1;PMS_P2;Temp;Humidity;BMP_temperature;BMP_pressure;BME280_temperature;BME280_humidity;BME280_pressure;Samples;Min_cycle;Max_cycle;Signal;HPM_P1;HPM_P2
2022/09/01 00:01:07;;;;;;;5.82;1.30;;;;;;;;;;5065042;28;20090;-64
2022/09/01 00:03:36;;;;;;;9.05;1.75;;;;;;;;;;5065104;28;20542;-64
2022/09/01 00:06:08;;;;;;;5.07;1.25;;;;;;;;;;5070485;28;20048;-64
2022/09/01 00:08:35;;;;;;;6.20;1.25;;;;;;;;;;5062736;28;20049;-63
2022/09/01 00:11:02;;;;;;;5.25;1.40;;;;;;;;;;5053604;28;20052;-64
2022/09/01 00:13:32;;;;;;;7.30;1.42;;;;;;;;;;5068813;28;20165;-63
2022/09/01 00:15:59;;;;;;;2.85;1.40;;;;;;;;;;5065801;28;20064;-63
2022/09/01 00:18:26;;;;;;;4.20;1.33;;;;;;;;;;5067906;28;20044;-63
2022/09/01 00:20:58;;;;;;;2.70;1.35;;;;;;;;;;5065366;28;20056;-63
2022/09/01 00:23:25;;;;;;;4.82;1.48;;;;;;;;;;5066155;28;20052;-63
2022/09/01 00:25:52;;;;;;;2.03;1.20;;;;;;;;;;5065063;28;20052;-63
2022/09/01 00:28:20;;;;;;;4.30;1.25;;;;;;;;;;5065839;28;20078;-63
2022/09/01 00:30:47;;;;;;;3.38;1.23;;;;;;;;;;5066695;28;20411;-63
2022/09/01 00:33:14;;;;;;;4.72;1.30;;;;;;;;;;5065009;28;20052;-63
2022/09/01 00:35:41;;;;;;;4.30;1.20;;;;;;;;;;5072430;28;20056;-63
2022/09/01 00:38:10;;;;;;;3.63;1.40;;;;;;;;;;5062455;28;20439;-63
2022/09/01 00:40:37;;;;;;;4.45;1.50;;;;;;;;;;5069535;28;20127;-63
2022/09/01 00:43:12;;;;;;;2.03;1.00;;;;;;;;;;5068392;28;20149;-64
2022/09/01 00:45:40;;;;;;;2.17;1.08;;;;;;;;;;5045915;28;20068;-64
2022/09/01 00:48:08;;;;;;;2.70;1.38;;;;;;;;;;5066704;28;20047;-63
2022/09/01 00:50:36;;;;;;;3.42;1.00;;;;;;;;;;5066390;28;20049;-63
2022/09/01 00:53:05;;;;;;;5.47;1.20;;;;;;;;;;5065902;28;20044;-63
2022/09/01 00:55:35;;;;;;;6.70;1.30;;;;;;;;;;5066427;28;20483;-63
2022/09/01 00:58:02;;;;;;;3.83;1.40;;;;;;;;;;5056876;28;20045;-63
2022/09/01 01:00:31;;;;;;;7.30;1.05;;;;;;;;;;5065675;28;20101;-64
2022/09/01 01:02:58;;;;;;;2.50;1.08;;;;;;;;;;5062147;28;20060;-63
2022/09/01 01:05:27;;;;;;;3.33;1.00;;;;;;;;;;5061202;28;20055;-63
2022/09/01 01:07:55;;;;;;;1.42;0.88;;;;;;;;;;5060802;28;20076;-63
2022/09/01 01:10:25;;;;;;;2.83;1.05;;;;;;;;;;5039155;28;20055;-63
2022/09/01 01:12:54;;;;;;;4.55;0.95;;;;;;;;;;5062671;28;20123;-64
2022/09/01 01:15:21;;;;;;;3.25;1.40;;;;;;;;;;5061655;28;20060;-63
2022/09/01 01:17:48;;;;;;;5.57;1.40;;;;;;;;;;5063458;28;20098;-63
2022/09/01 01:23:08;;;;;;;5.10;1.23;;;;;;;;;;5061593;28;20045;-63
2022/09/01 01:25:38;;;;;;;4.30;1.10;;;;;;;;;;5062209;28;20131;-64
2022/09/01 01:28:07;;;;;;;2.80;1.10;;;;;;;;;;5061969;28;20044;-64
2022/09/01 01:30:35;;;;;;;2.50;1.17;;;;;;;;;;5069480;28;20049;-63
2022/09/01 01:33:03;;;;;;;3.22;1.10;;;;;;;;;;5053598;28;20113;-63
2022/09/01 01:35:32;;;;;;;1.85;1.00;;;;;;;;;;5061544;28;20044;-63
2022/09/01 01:38:00;;;;;;;3.95;0.95;;;;;;;;;;5058320;28;20084;-63
2022/09/01 01:40:30;;;;;;;5.22;1.10;;;;;;;;;;5040426;28;20061;-63
2022/09/01 01:43:00;;;;;;;1.42;0.82;;;;;;;;;;5061646;28;20200;-63
2022/09/01 01:45:28;;;;;;;1.77;1.15;;;;;;;;;;5065118;28;20052;-64
2022/09/01 01:47:56;;;;;;;3.25;1.05;;;;;;;;;;5069117;28;20045;-63
2022/09/01 01:50:25;;;;;;;1.67;1.10;;;;;;;;;;5064459;28;20049;-63
2022/09/01 01:52:53;;;;;;;2.90;1.00;;;;;;;;;;5068756;28;20343;-63
2022/09/01 01:55:23;;;;;;;2.45;1.05;;;;;;;;;;5065406;28;20164;-63
2022/09/01 01:57:51;;;;;;;1.80;1.08;;;;;;;;;;5062584;28;20042;-63
2022/09/01 02:00:21;;;;;;;2.60;1.20;;;;;;;;;;5069151;28;20483;-64
2022/09/01 02:02:51;;;;;;;1.35;0.90;;;;;;;;;;5059279;28;20053;-63
2022/09/01 02:05:23;;;;;;;1.70;0.93;;;;;;;;;;5066452;28;20491;-63
2022/09/01 02:07:54;;;;;;;2.85;1.08;;;;;;;;;;5059784;28;20048;-63
2022/09/01 02:10:22;;;;;;;4.03;1.08;;;;;;;;;;5068681;28;20040;-63
2022/09/01 02:12:50;;;;;;;7.55;1.10;;;;;;;;;;5067163;28;20087;-64
2022/09/01 02:15:17;;;;;;;2.47;1.00;;;;;;;;;;5068901;28;20102;-63
2022/09/01 02:17:45;;;;;;;3.10;1.20;;;;;;;;;;5066457;28;20048;-64
2022/09/01 02:20:15;;;;;;;1.40;1.00;;;;;;;;;;5072506;28;20137;-63
2022/09/01 02:22:43;;;;;;;1.60;1.25;;;;;;;;;;5063101;28;20052;-64
2022/09/01 02:25:10;;;;;;;4.47;1.10;;;;;;;;;;5052561;28;20047;-64
2022/09/01 02:27:38;;;;;;;2.17;0.90;;;;;;;;;;5058981;28;20053;-63
2022/09/01 02:30:09;;;;;;;4.85;1.15;;;;;;;;;;5068174;28;20059;-64
2022/09/01 02:32:37;;;;;;;2.05;1.10;;;;;;;;;;5066229;28;20052;-63
2022/09/01 02:35:08;;;;;;;2.60;1.20;;;;;;;;;;5065469;28;20056;-63
2022/09/01 02:37:38;;;;;;;2.65;1.33;;;;;;;;;;5063243;28;20044;-63
2022/09/01 02:40:06;;;;;;;1.30;0.80;;;;;;;;;;5072490;28;20093;-63
2022/09/01 02:42:34;;;;;;;3.58;1.00;;;;;;;;;;5071274;28;20051;-63
2022/09/01 02:45:01;;;;;;;1.60;1.10;;;;;;;;;;5071891;28;20817;-63
2022/09/01 02:47:28;;;;;;;2.15;1.30;;;;;;;;;;5070150;28;20131;-63
2022/09/01 02:49:57;;;;;;;2.55;1.23;;;;;;;;;;5064050;28;22729;-64
2022/09/01 02:52:28;;;;;;;2.78;1.10;;;;;;;;;;5070546;28;20040;-63
2022/09/01 02:54:56;;;;;;;1.30;0.90;;;;;;;;;;5070706;28;20056;-63
2022/09/01 02:57:23;;;;;;;8.23;1.27;;;;;;;;;;5067813;28;21238;-63
2022/09/01 02:59:50;;;;;;;2.92;1.10;;;;;;;;;;5069174;28;20056;-63
2022/09/01 03:02:18;;;;;;;2.58;0.93;;;;;;;;;;5050518;28;20048;-63
2022/09/01 03:04:46;;;;;;;1.40;1.05;;;;;;;;;;5062179;28;20060;-63
2022/09/01 03:07:17;;;;;;;4.63;1.08;;;;;;;;;;5071668;28;20135;-63
2022/09/01 03:09:45;;;;;;;3.28;1.00;;;;;;;;;;5066655;28;20080;-64
2022/09/01 03:12:12;;;;;;;2.60;1.20;;;;;;;;;;5071259;28;20044;-63
2022/09/01 03:14:40;;;;;;;2.63;1.10;;;;;;;;;;5067143;28;20063;-63
2022/09/01 03:17:07;;;;;;;2.85;1.10;;;;;;;;;;5072034;28;20128;-64
2022/09/01 03:19:38;;;;;;;3.08;1.52;;;;;;;;;;5067739;28;20056;-63
2022/09/01 03:22:06;;;;;;;1.95;0.80;;;;;;;;;;5074214;28;20075;-63
2022/09/01 03:24:33;;;;;;;2.90;1.00;;;;;;;;;;5045373;28;20094;-63
2022/09/01 03:27:02;;;;;;;2.45;1.00;;;;;;;;;;5063769;28;20052;-64
2022/09/01 03:29:29;;;;;;;3.67;1.10;;;;;;;;;;5063108;28;20553;-63
2022/09/01 03:31:56;;;;;;;1.48;1.00;;;;;;;;;;5066871;28;20551;-63
2022/09/01 03:34:23;;;;;;;3.05;1.10;;;;;;;;;;5066972;28;20572;-64
2022/09/01 03:36:50;;;;;;;3.13;1.08;;;;;;;;;;5047104;28;20099;-63
2022/09/01 03:39:18;;;;;;;1.63;0.82;;;;;;;;;;5043853;28;20048;-63
2022/09/01 03:41:45;;;;;;;1.35;0.88;;;;;;;;;;5070404;28;20055;-63
2022/09/01 03:44:15;;;;;;;4.60;0.90;;;;;;;;;;5068299;28;20045;-63
2022/09/01 03:46:42;;;;;;;4.18;1.10;;;;;;;;;;5071207;28;20056;-63
2022/09/01 03:49:11;;;;;;;2.45;1.00;;;;;;;;;;5063475;28;20040;-64
2022/09/01 03:51:39;;;;;;;2.35;1.08;;;;;;;;;;5067766;28;20102;-63
2022/09/01 03:54:06;;;;;;;4.75;1.30;;;;;;;;;;5050727;28;20412;-63
2022/09/01 03:56:33;;;;;;;1.30;1.08;;;;;;;;;;5066631;28;20045;-63
2022/09/01 03:59:01;;;;;;;4.40;1.20;;;;;;;;;;5051618;28;20381;-63
2022/09/01 04:01:32;;;;;;;4.55;1.05;;;;;;;;;;5070293;28;20609;-63
2022/09/01 04:04:00;;;;;;;2.22;1.20;;;;;;;;;;5068337;28;20044;-63
2022/09/01 04:06:29;;;;;;;1.65;1.05;;;;;;;;;;5060024;28;20503;-63
2022/09/01 04:09:01;;;;;;;2.17;1.20;;;;;;;;;;5049527;28;20122;-63
2022/09/01 04:11:29;;;;;;;2.20;1.05;;;;;;;;;;5065290;28;20055;-63
2022/09/01 04:13:57;;;;;;;4.30;1.27;;;;;;;;;;5064982;28;20139;-63
2022/09/01 04:19:18;;;;;;;3.10;1.10;;;;;;;;;;5066535;28;20043;-63
2022/09/01 04:21:46;;;;;;;1.95;1.10;;;;;;;;;;5059805;28;20431;-63
2022/09/01 04:24:14;;;;;;;2.17;0.98;;;;;;;;;;5061099;28;20103;-63
2022/09/01 04:26:42;;;;;;;1.92;1.17;;;;;;;;;;5064389;28;20080;-63
2022/09/01 04:29:10;;;;;;;3.83;1.00;;;;;;;;;;5064153;28;20049;-63
2022/09/01 04:31:39;;;;;;;1.95;1.02;;;;;;;;;;5061259;28;20078;-63
2022/09/01 04:34:12;;;;;;;2.25;1.27;;;;;;;;;;5044303;28;20055;-63
2022/09/01 04:36:42;;;;;;;1.52;1.20;;;;;;;;;;5061373;28;20056;-63
2022/09/01 04:39:11;;;;;;;1.70;1.45;;;;;;;;;;5057439;28;20107;-63
2022/09/01 04:41:40;;;;;;;4.40;1.42;;;;;;;;;;5049448;28;20065;-63
2022/09/01 04:44:07;;;;;;;3.67;1.48;;;;;;;;;;5062051;28;20122;-63
2022/09/01 04:46:36;;;;;;;2.15;1.40;;;;;;;;;;5065549;28;20102;-63
2022/09/01 04:49:06;;;;;;;3.15;1.55;;;;;;;;;;5046351;28;20041;-63
2022/09/01 04:51:34;;;;;;;4.00;1.70;;;;;;;;;;5061262;28;20052;-63
2022/09/01 04:54:03;;;;;;;1.88;1.38;;;;;;;;;;5065725;28;20098;-63
2022/09/01 04:56:35;;;;;;;2.40;1.52;;;;;;;;;;5062562;28;20059;-63
2022/09/01 04:59:02;;;;;;;2.17;1.40;;;;;;;;;;5054222;28;20067;-63
2022/09/01 05:01:30;;;;;;;5.28;1.58;;;;;;;;;;5059966;28;20127;-63
2022/09/01 05:04:00;;;;;;;2.70;1.60;;;;;;;;;;5039989;28;20061;-63
2022/09/01 05:06:27;;;;;;;5.63;1.70;;;;;;;;;;5062503;28;20048;-63
2022/09/01 05:08:58;;;;;;;3.85;1.52;;;;;;;;;;5061983;28;20067;-63
2022/09/01 05:11:26;;;;;;;2.42;1.27;;;;;;;;;;5061750;28;20060;-63
2022/09/01 05:13:56;;;;;;;4.18;1.48;;;;;;;;;;5061114;28;20098;-63
2022/09/01 05:16:26;;;;;;;4.88;1.40;;;;;;;;;;5062195;28;20056;-64
2022/09/01 05:18:55;;;;;;;4.65;1.52;;;;;;;;;;5065948;28;20045;-63
2022/09/01 05:21:27;;;;;;;3.38;1.80;;;;;;;;;;5064171;28;20124;-64
2022/09/01 05:23:54;;;;;;;2.70;1.60;;;;;;;;;;5069265;28;20433;-63
2022/09/01 05:26:22;;;;;;;6.63;1.60;;;;;;;;;;5062736;28;20078;-63
2022/09/01 05:28:53;;;;;;;3.20;1.83;;;;;;;;;;5046408;28;20067;-64
2022/09/01 05:31:21;;;;;;;2.75;1.38;;;;;;;;;;5069773;28;20802;-63
2022/09/01 05:33:49;;;;;;;7.78;1.88;;;;;;;;;;5059634;28;20056;-64
2022/09/01 05:36:18;;;;;;;2.58;1.50;;;;;;;;;;5068438;28;20055;-64
2022/09/01 05:38:46;;;;;;;5.47;1.30;;;;;;;;;;5059466;28;20137;-64
2022/09/01 05:41:15;;;;;;;4.53;1.40;;;;;;;;;;5056728;28;20053;-63
2022/09/01 05:43:45;;;;;;;2.75;1.50;;;;;;;;;;5064079;28;20052;-63
2022/09/01 05:46:15;;;;;;;5.10;1.60;;;;;;;;;;5063008;28;20052;-63
2022/09/01 05:48:43;;;;;;;1.90;1.30;;;;;;;;;;5068874;28;20122;-63
2022/09/01 05:51:10;;;;;;;2.50;1.42;;;;;;;;;;5051379;28;20065;-63
2022/09/01 05:53:38;;;;;;;3.60;1.58;;;;;;;;;;5063381;28;20524;-63
2022/09/01 05:56:08;;;;;;;3.70;1.50;;;;;;;;;;5065558;28;20121;-64
2022/09/01 05:58:37;;;;;;;2.25;1.40;;;;;;;;;;5072889;28;20072;-63
2022/09/01 06:01:04;;;;;;;4.43;1.30;;;;;;;;;;5067973;28;20213;-63
2022/09/01 06:03:34;;;;;;;3.45;1.50;;;;;;;;;;5060845;28;20587;-64
2022/09/01 06:06:04;;;;;;;4.22;1.50;;;;;;;;;;5061875;28;20049;-64
2022/09/01 06:08:31;;;;;;;6.38;1.58;;;;;;;;;;5044283;28;20139;-63
2022/09/01 06:10:58;;;;;;;4.63;1.40;;;;;;;;;;5062912;28;20353;-63
2022/09/01 06:13:26;;;;;;;5.32;1.98;;;;;;;;;;5046261;28;20577;-64
2022/09/01 06:15:53;;;;;;;2.30;1.40;;;;;;;;;;5070660;28;20079;-64
2022/09/01 06:18:22;;;;;;;4.93;1.55;;;;;;;;;;5069880;28;20406;-63
2022/09/01 06:20:50;;;;;;;6.53;1.75;;;;;;;;;;5066609;28;20057;-64
2022/09/01 06:23:18;;;;;;;1.90;1.48;;;;;;;;;;5068189;28;20476;-63
2022/09/01 06:25:46;;;;;;;2.22;1.60;;;;;;;;;;5054217;28;20048;-63
2022/09/01 06:28:13;;;;;;;2.03;1.38;;;;;;;;;;5068614;28;20105;-63
2022/09/01 06:30:43;;;;;;;3.88;1.70;;;;;;;;;;5061047;28;20063;-64
2022/09/01 06:33:12;;;;;;;3.58;1.55;;;;;;;;;;5066304;28;20101;-64
2022/09/01 06:35:40;;;;;;;2.97;1.45;;;;;;;;;;5066785;28;20136;-63
2022/09/01 06:38:10;;;;;;;2.65;1.30;;;;;;;;;;5070849;28;20131;-63
2022/09/01 06:40:41;;;;;;;3.08;1.48;;;;;;;;;;5062124;28;20055;-63
2022/09/01 06:43:10;;;;;;;2.95;1.55;;;;;;;;;;5060893;28;20106;-63
2022/09/01 06:45:40;;;;;;;2.20;1.50;;;;;;;;;;5062812;28;20040;-64
2022/09/01 06:48:08;;;;;;;2.90;1.73;;;;;;;;;;5069135;28;20118;-63
2022/09/01 06:50:36;;;;;;;3.80;1.40;;;;;;;;;;5069017;28;20067;-63
2022/09/01 06:53:07;;;;;;;1.85;1.38;;;;;;;;;;5068610;28;20056;-64
2022/09/01 06:55:36;;;;;;;2.35;1.33;;;;;;;;;;5070471;28;20063;-63
2022/09/01 06:58:04;;;;;;;2.22;1.30;;;;;;;;;;5066192;28;20056;-64
2022/09/01 07:00:31;;;;;;;3.25;1.52;;;;;;;;;;5064750;28;20056;-63
2022/09/01 07:02:58;;;;;;;2.05;1.30;;;;;;;;;;5066939;28;20061;-64
2022/09/01 07:05:26;;;;;;;2.03;1.27;;;;;;;;;;5054494;28;20044;-63
2022/09/01 07:07:54;;;;;;;3.80;1.48;;;;;;;;;;5066190;28;20048;-64
2022/09/01 07:10:22;;;;;;;3.22;1.58;;;;;;;;;;5068395;28;20063;-63
2022/09/01 07:12:51;;;;;;;2.75;1.30;;;;;;;;;;5046640;28;20060;-64
2022/09/01 07:15:18;;;;;;;2.70;1.40;;;;;;;;;;5073007;28;20056;-64
2022/09/01 07:17:48;;;;;;;5.97;1.60;;;;;;;;;;5049268;28;20075;-63
2022/09/01 07:20:16;;;;;;;2.95;1.45;;;;;;;;;;5070601;28;20496;-64
2022/09/01 07:22:43;;;;;;;4.57;1.42;;;;;;;;;;5072376;28;20518;-64
2022/09/01 07:25:11;;;;;;;1.75;1.33;;;;;;;;;;5071899;28;20083;-64
2022/09/01 07:27:38;;;;;;;5.90;1.45;;;;;;;;;;5065190;28;20677;-63
2022/09/01 07:30:10;;;;;;;4.50;1.50;;;;;;;;;;5063559;28;20678;-64
2022/09/01 07:32:42;;;;;;;3.17;1.27;;;;;;;;;;5066095;28;21030;-64
2022/09/01 07:35:10;;;;;;;2.22;1.33;;;;;;;;;;5050057;28;20101;-65
2022/09/01 07:37:37;;;;;;;5.38;1.70;;;;;;;;;;5064496;28;20060;-64
2022/09/01 07:40:06;;;;;;;2.42;1.30;;;;;;;;;;5067479;28;20051;-64
2022/09/01 07:42:34;;;;;;;2.60;1.45;;;;;;;;;;5046965;28;20057;-64
2022/09/01 07:45:07;;;;;;;5.40;1.38;;;;;;;;;;5063731;28;20052;-64
2022/09/01 07:47:36;;;;;;;2.15;1.20;;;;;;;;;;5065771;28;20129;-64
2022/09/01 07:50:07;;;;;;;1.80;1.10;;;;;;;;;;5067090;28;20059;-63
2022/09/01 07:52:34;;;;;;;2.03;1.20;;;;;;;;;;5065316;28;20128;-64
2022/09/01 07:55:02;;;;;;;6.47;1.50;;;;;;;;;;5046449;28;20793;-64
2022/09/01 07:57:30;;;;;;;5.85;1.25;;;;;;;;;;5059518;28;20051;-64
2022/09/01 07:59:58;;;;;;;1.52;1.00;;;;;;;;;;5064461;28;20041;-64
2022/09/01 08:02:26;;;;;;;3.08;1.30;;;;;;;;;;5060211;28;20048;-64
2022/09/01 08:04:55;;;;;;;2.45;1.33;;;;;;;;;;5069931;28;20059;-64
2022/09/01 08:07:22;;;;;;;4.63;1.10;;;;;;;;;;5071545;28;20487;-64
2022/09/01 08:09:49;;;;;;;3.28;1.50;;;;;;;;;;5066286;28;20048;-64
2022/09/01 08:12:17;;;;;;;2.88;1.05;;;;;;;;;;5061986;28;20059;-64
2022/09/01 08:14:45;;;;;;;2.20;1.20;;;;;;;;;;5053628;28;20064;-64
2022/09/01 08:17:12;;;;;;;2.67;1.42;;;;;;;;;;5064814;28;21684;-64
2022/09/01 08:19:39;;;;;;;4.90;1.23;;;;;;;;;;5067381;28;20044;-64
2022/09/01 08:22:08;;;;;;;3.50;1.23;;;;;;;;;;5059227;28;20048;-63
2022/09/01 08:24:35;;;;;;;2.17;1.10;;;;;;;;;;5062259;28;20094;-63
2022/09/01 08:27:03;;;;;;;4.32;1.08;;;;;;;;;;5066450;28;20056;-64
2022/09/01 08:29:30;;;;;;;2.38;1.10;;;;;;;;;;5060672;28;20047;-64
2022/09/01 08:31:58;;;;;;;4.38;1.30;;;;;;;;;;5065249;28;20060;-64
2022/09/01 08:34:25;;;;;;;2.90;1.40;;;;;;;;;;5060847;28;20057;-64
2022/09/01 08:36:53;;;;;;;4.65;1.40;;;;;;;;;;5063941;28;20423;-64
2022/09/01 08:39:21;;;;;;;2.13;1.17;;;;;;;;;;5060756;28;20044;-64
2022/09/01 08:41:53;;;;;;;5.15;1.20;;;;;;;;;;5058368;28;21033;-65
2022/09/01 08:44:26;;;;;;;3.13;1.25;;;;;;;;;;5063634;28;20098;-63
2022/09/01 08:46:55;;;;;;;3.15;1.50;;;;;;;;;;5060234;28;20558;-64
2022/09/01 08:49:24;;;;;;;1.38;0.98;;;;;;;;;;5061888;28;20432;-64
2022/09/01 08:51:54;;;;;;;3.60;1.35;;;;;;;;;;5059751;28;20056;-63
2022/09/01 08:54:25;;;;;;;4.70;1.20;;;;;;;;;;5060740;28;20048;-63
2022/09/01 08:56:54;;;;;;;1.98;1.10;;;;;;;;;;5039435;28;20053;-64
2022/09/01 08:59:22;;;;;;;2.65;1.40;;;;;;;;;;5059712;28;20103;-64
2022/09/01 09:01:55;;;;;;;6.15;1.80;;;;;;;;;;5061267;28;20102;-64
2022/09/01 09:04:32;;;;;;;3.42;1.30;;;;;;;;;;5059381;28;20674;-64
2022/09/01 09:07:04;;;;;;;4.47;1.25;;;;;;;;;;5058354;28;20052;-65
2022/09/01 09:09:38;;;;;;;4.28;1.42;;;;;;;;;;5054981;28;20284;-64
2022/09/01 09:12:12;;;;;;;2.97;1.42;;;;;;;;;;5066186;28;20043;-64
2022/09/01 09:14:46;;;;;;;7.82;1.30;;;;;;;;;;5064630;28;20105;-64
2022/09/01 09:17:14;;;;;;;2.20;1.02;;;;;;;;;;5065383;28;20079;-64
2022/09/01 09:19:42;;;;;;;1.88;1.05;;;;;;;;;;5064938;28;20044;-64
2022/09/01 09:22:10;;;;;;;2.60;0.93;;;;;;;;;;5070505;28;20048;-64
2022/09/01 09:24:49;;;;;;;2.30;1.13;;;;;;;;;;5065546;28;20052;-64
2022/09/01 09:27:20;;;;;;;1.50;1.00;;;;;;;;;;5062375;28;20049;-65
2022/09/01 09:29:49;;;;;;;2.85;0.90;;;;;;;;;;5069254;28;20044;-64
2022/09/01 09:32:17;;;;;;;2.28;1.08;;;;;;;;;;5066430;28;20048;-64
2022/09/01 09:34:44;;;;;;;3.67;1.30;;;;;;;;;;5070836;28;20443;-65
2022/09/01 09:37:22;;;;;;;2.33;1.23;;;;;;;;;;5071539;28;20048;-65
2022/09/01 09:40:08;;;;;;;3.28;1.23;;;;;;;;;;5067678;28;20094;-64
2022/09/01 09:42:38;;;;;;;6.90;1.10;;;;;;;;;;5063529;28;20050;-65
2022/09/01 09:45:06;;;;;;;4.50;1.33;;;;;;;;;;5071929;28;20063;-64
2022/09/01 09:47:35;;;;;;;2.25;1.00;;;;;;;;;;5067668;28;20399;-64
2022/09/01 09:50:12;;;;;;;3.13;1.13;;;;;;;;;;5053714;28;20049;-64
2022/09/01 09:52:39;;;;;;;3.22;1.02;;;;;;;;;;5059284;28;20057;-64
2022/09/01 09:55:20;;;;;;;4.85;0.90;;;;;;;;;;5063707;28;20131;-64
2022/09/01 09:57:48;;;;;;;3.58;0.90;;;;;;;;;;5065911;28;20037;-64
2022/09/01 10:00:20;;;;;;;1.48;0.95;;;;;;;;;;5066166;28;20064;-64
2022/09/01 10:02:52;;;;;;;1.73;0.93;;;;;;;;;;5047737;28;20064;-64
2022/09/01 10:05:25;;;;;;;2.05;0.95;;;;;;;;;;5054619;28;20106;-64
2022/09/01 10:07:53;;;;;;;4.47;1.10;;;;;;;;;;5061847;28;20060;-64
2022/09/01 10:10:30;;;;;;;3.40;0.90;;;;;;;;;;5070414;28;20114;-64
2022/09/01 10:12:58;;;;;;;7.20;1.10;;;;;;;;;;5074669;28;20051;-64
2022/09/01 10:15:27;;;;;;;2.47;1.00;;;;;;;;;;5051324;28;20059;-64
2022/09/01 10:17:56;;;;;;;1.90;0.80;;;;;;;;;;5069640;28;20067;-65
2022/09/01 10:20:25;;;;;;;2.70;1.00;;;;;;;;;;5070412;28;20168;-65
2022/09/01 10:22:52;;;;;;;3.60;0.90;;;;;;;;;;5067215;28;20535;-63
2022/09/01 10:25:21;;;;;;;2.63;0.88;;;;;;;;;;5071694;28;20055;-64
2022/09/01 10:27:52;;;;;;;2.20;0.88;;;;;;;;;;5046492;28;20164;-64
2022/09/01 10:30:20;;;;;;;2.13;1.10;;;;;;;;;;5070629;28;20105;-65
2022/09/01 10:32:49;;;;;;;4.28;1.10;;;;;;;;;;5067248;28;20078;-64
2022/09/01 10:35:18;;;;;;;1.67;1.00;;;;;;;;;;5068689;28;21293;-64
2022/09/01 10:37:46;;;;;;;4.40;0.82;;;;;;;;;;5073770;28;20161;-64
2022/09/01 10:40:16;;;;;;;1.20;0.80;;;;;;;;;;5067364;28;20048;-64
2022/09/01 10:42:44;;;;;;;1.50;0.90;;;;;;;;;;5071958;28;20488;-64
2022/09/01 10:45:20;;;;;;;3.55;0.93;;;;;;;;;;5070331;28;20566;-65
2022/09/01 10:47:48;;;;;;;3.00;0.70;;;;;;;;;;5063318;28;20080;-64
2022/09/01 10:50:24;;;;;;;2.03;0.80;;;;;;;;;;5063542;28;20040;-64
2022/09/01 10:53:02;;;;;;;1.08;0.70;;;;;;;;;;5073403;28;20052;-65
2022/09/01 10:55:44;;;;;;;1.73;0.90;;;;;;;;;;5066972;28;20064;-64
2022/09/01 10:58:21;;;;;;;2.50;0.95;;;;;;;;;;5058467;28;20048;-64
2022/09/01 11:00:53;;;;;;;2.50;0.80;;;;;;;;;;5065181;28;20056;-64
2022/09/01 11:03:44;;;;;;;3.13;0.90;;;;;;;;;;5069356;28;20048;-64
2022/09/01 11:06:31;;;;;;;3.22;0.98;;;;;;;;;;5046620;28;20109;-64
2022/09/01 11:09:00;;;;;;;2.80;0.70;;;;;;;;;;5067105;28;20174;-64
2022/09/01 11:11:31;;;;;;;1.88;0.88;;;;;;;;;;5068133;28;20051;-64
2022/09/01 11:13:59;;;;;;;1.17;0.60;;;;;;;;;;5069775;28;20105;-64
2022/09/01 11:16:36;;;;;;;1.25;0.60;;;;;;;;;;5065859;28;20045;-64
2022/09/01 11:19:36;;;;;;;2.05;0.98;;;;;;;;;;5068261;28;20052;-64
2022/09/01 11:22:24;;;;;;;1.77;0.90;;;;;;;;;;4970085;28;20050;-64
2022/09/01 11:24:52;;;;;;;2.40;1.17;;;;;;;;;;4961241;28;20080;-64
2022/09/01 11:27:38;;;;;;;2.40;1.10;;;;;;;;;;5022770;28;20056;-64
2022/09/01 11:30:09;;;;;;;4.13;0.93;;;;;;;;;;5069388;28;20047;-63
2022/09/01 11:32:38;;;;;;;2.25;0.60;;;;;;;;;;5062648;28;20070;-65
2022/09/01 11:35:07;;;;;;;2.08;0.85;;;;;;;;;;5047680;28;20056;-63
2022/09/01 11:37:34;;;;;;;1.00;0.63;;;;;;;;;;5069984;28;20048;-64
2022/09/01 11:40:02;;;;;;;1.45;0.80;;;;;;;;;;5043021;28;20106;-64
2022/09/01 11:42:33;;;;;;;16.77;1.75;;;;;;;;;;5064735;28;20523;-64
2022/09/01 11:45:02;;;;;;;2.80;1.00;;;;;;;;;;5065016;28;20044;-64
2022/09/01 11:47:32;;;;;;;4.63;1.08;;;;;;;;;;5063779;28;20048;-65
2022/09/01 11:50:02;;;;;;;4.68;1.20;;;;;;;;;;5064012;28;20132;-64
2022/09/01 11:52:33;;;;;;;2.80;0.82;;;;;;;;;;5067074;28;20076;-65
2022/09/01 11:55:00;;;;;;;1.67;0.82;;;;;;;;;;5049021;28;20049;-65
2022/09/01 11:57:31;;;;;;;1.83;0.90;;;;;;;;;;5059214;28;20045;-64
2022/09/01 11:59:59;;;;;;;1.35;0.77;;;;;;;;;;5069431;28;20045;-64
2022/09/01 12:02:30;;;;;;;4.18;1.00;;;;;;;;;;5051959;28;20613;-64
2022/09/01 12:04:58;;;;;;;2.83;0.77;;;;;;;;;;5068137;28;20072;-63
2022/09/01 12:07:32;;;;;;;2.40;1.00;;;;;;;;;;5063931;28;20564;-65
2022/09/01 12:10:00;;;;;;;3.13;0.95;;;;;;;;;;5064837;28;20049;-65
2022/09/01 12:12:33;;;;;;;3.95;0.75;;;;;;;;;;5052445;28;20060;-64
2022/09/01 12:15:01;;;;;;;1.58;0.82;;;;;;;;;;5055282;28;20504;-64
2022/09/01 12:17:28;;;;;;;1.80;0.80;;;;;;;;;;5034131;28;20055;-65
2022/09/01 12:19:56;;;;;;;3.15;0.85;;;;;;;;;;5057921;28;20044;-64
2022/09/01 12:22:23;;;;;;;1.67;0.93;;;;;;;;;;5058905;28;20091;-64
2022/09/01 12:24:53;;;;;;;2.42;0.93;;;;;;;;;;5060678;28;20053;-65
2022/09/01 12:27:23;;;;;;;4.07;1.00;;;;;;;;;;5060288;28;20094;-66
2022/09/01 12:29:51;;;;;;;5.50;1.38;;;;;;;;;;5055864;28;20105;-65
2022/09/01 12:32:18;;;;;;;3.10;1.15;;;;;;;;;;5057192;28;20045;-65
2022/09/01 12:34:46;;;;;;;4.95;0.80;;;;;;;;;;5044279;28;20058;-65
2022/09/01 12:37:21;;;;;;;5.28;1.27;;;;;;;;;;5064755;28;20056;-65
2022/09/01 12:39:49;;;;;;;4.57;1.20;;;;;;;;;;5057254;28;20045;-65
2022/09/01 12:42:26;;;;;;;5.38;1.30;;;;;;;;;;5064124;28;20137;-64
2022/09/01 12:44:54;;;;;;;2.80;1.00;;;;;;;;;;5061383;28;20131;-67
2022/09/01 12:47:46;;;;;;;4.40;1.15;;;;;;;;;;5067101;28;20062;-64
2022/09/01 12:50:28;;;;;;;2.60;0.90;;;;;;;;;;5063928;28;20051;-67
2022/09/01 12:52:57;;;;;;;1.90;1.05;;;;;;;;;;5059612;28;20178;-65
2022/09/01 12:55:25;;;;;;;3.60;1.10;;;;;;;;;;5063573;28;20127;-66
2022/09/01 12:57:54;;;;;;;1.80;0.85;;;;;;;;;;5059243;28;20100;-65
2022/09/01 13:00:23;;;;;;;1.23;0.90;;;;;;;;;;5058985;28;20106;-64
2022/09/01 13:02:51;;;;;;;2.55;1.02;;;;;;;;;;5062634;28;20041;-65
2022/09/01 13:05:20;;;;;;;2.28;1.00;;;;;;;;;;5037909;28;20091;-65
2022/09/01 13:07:47;;;;;;;2.80;0.98;;;;;;;;;;5061475;28;20078;-64
2022/09/01 13:10:14;;;;;;;3.67;1.17;;;;;;;;;;5054531;28;20079;-66
2022/09/01 13:12:42;;;;;;;1.63;0.90;;;;;;;;;;5062763;28;20091;-67
2022/09/01 13:15:12;;;;;;;3.63;1.33;;;;;;;;;;5055509;28;20052;-66
2022/09/01 13:17:39;;;;;;;1.80;1.00;;;;;;;;;;5057466;28;20110;-67
2022/09/01 13:20:07;;;;;;;1.42;0.90;;;;;;;;;;5062262;28;20098;-68
2022/09/01 13:22:34;;;;;;;2.10;1.13;;;;;;;;;;5041779;28;20057;-69
2022/09/01 13:25:01;;;;;;;2.47;0.80;;;;;;;;;;5062939;28;20135;-68
2022/09/01 13:27:29;;;;;;;1.88;1.00;;;;;;;;;;5064295;28;20455;-66
2022/09/01 13:29:56;;;;;;;2.65;1.10;;;;;;;;;;5060857;28;20056;-67
2022/09/01 13:32:25;;;;;;;6.15;1.10;;;;;;;;;;5059674;28;20049;-66
2022/09/01 13:34:53;;;;;;;2.85;0.80;;;;;;;;;;5060078;28;20048;-66
2022/09/01 13:37:20;;;;;;;3.33;1.27;;;;;;;;;;5043050;28;20140;-66
2022/09/01 13:39:47;;;;;;;2.17;1.13;;;;;;;;;;5064773;28;20410;-66
2022/09/01 13:42:15;;;;;;;5.47;1.20;;;;;;;;;;5055148;28;20166;-66
2022/09/01 13:44:42;;;;;;;1.05;0.80;;;;;;;;;;5068892;28;20044;-66
2022/09/01 13:47:10;;;;;;;1.42;1.05;;;;;;;;;;5047714;28;20059;-67
2022/09/01 13:49:38;;;;;;;2.28;0.90;;;;;;;;;;5068846;28;20048;-66
2022/09/01 13:52:06;;;;;;;5.50;1.00;;;;;;;;;;5061857;28;20044;-66
2022/09/01 13:54:33;;;;;;;3.63;1.13;;;;;;;;;;5064856;28;20384;-66
2022/09/01 13:57:00;;;;;;;1.73;1.10;;;;;;;;;;5046036;28;20056;-66
2022/09/01 13:59:29;;;;;;;3.72;1.20;;;;;;;;;;5064871;28;20048;-68
2022/09/01 14:01:56;;;;;;;3.28;1.20;;;;;;;;;;5061641;28;20060;-67
2022/09/01 14:04:23;;;;;;;5.53;1.23;;;;;;;;;;5072763;28;20051;-68
2022/09/01 14:06:52;;;;;;;2.55;1.17;;;;;;;;;;5044719;28;20049;-66
2022/09/01 14:09:19;;;;;;;4.57;1.40;;;;;;;;;;5070589;28;20576;-67
2022/09/01 14:11:47;;;;;;;2.38;1.40;;;;;;;;;;5067291;28;20399;-67
2022/09/01 14:14:14;;;;;;;3.20;1.10;;;;;;;;;;5070076;28;20056;-67
2022/09/01 14:16:41;;;;;;;11.20;1.65;;;;;;;;;;5042266;28;20060;-67
2022/09/01 14:19:09;;;;;;;2.90;1.30;;;;;;;;;;5047496;28;20114;-68
2022/09/01 14:21:37;;;;;;;2.90;1.30;;;;;;;;;;5064313;28;20487;-67
2022/09/01 14:24:07;;;;;;;4.53;1.42;;;;;;;;;;5064795;28;20049;-68
2022/09/01 14:26:34;;;;;;;4.40;1.33;;;;;;;;;;5068791;28;20048;-67
2022/09/01 14:29:01;;;;;;;4.38;1.45;;;;;;;;;;5066458;28;20052;-67
2022/09/01 14:31:29;;;;;;;6.70;1.33;;;;;;;;;;5067244;28;20114;-68
2022/09/01 14:33:56;;;;;;;5.30;1.75;;;;;;;;;;5047030;28;20118;-68
2022/09/01 14:36:24;;;;;;;5.68;1.30;;;;;;;;;;5065598;28;20128;-67
2022/09/01 14:38:52;;;;;;;2.60;1.15;;;;;;;;;;5065295;28;20099;-67
2022/09/01 14:41:22;;;;;;;6.63;1.35;;;;;;;;;;5063868;28;20048;-66
2022/09/01 14:43:50;;;;;;;4.50;1.42;;;;;;;;;;5059919;28;20047;-68
2022/09/01 14:46:18;;;;;;;5.38;1.60;;;;;;;;;;5064029;28;20041;-68
2022/09/01 14:48:47;;;;;;;5.47;1.33;;;;;;;;;;5065572;28;20423;-68
2022/09/01 14:51:21;;;;;;;2.55;1.23;;;;;;;;;;5052319;28;20055;-67
2022/09/01 14:53:48;;;;;;;3.88;1.35;;;;;;;;;;5069422;28;20743;-68
2022/09/01 14:56:17;;;;;;;5.57;1.45;;;;;;;;;;5070677;28;20045;-68
2022/09/01 14:58:49;;;;;;;15.32;1.20;;;;;;;;;;5068122;28;20052;-67
2022/09/01 15:01:17;;;;;;;3.30;1.38;;;;;;;;;;5067561;28;20103;-67